createdAt,value
2022-12-06T00:00:22.649Z,6.87
2022-12-06T00:02:50.568Z,8.17
2022-12-06T00:05:18.503Z,8.60
2022-12-06T00:07:46.406Z,8.17
2022-12-06T00:10:14.368Z,7.67
2022-12-06T00:12:42.238Z,8.00
2022-12-06T00:15:10.669Z,7.57
2022-12-06T00:17:43.014Z,7.10
2022-12-06T00:20:12.016Z,8.43
2022-12-06T00:22:45.046Z,8.73
2022-12-06T00:25:12.940Z,8.83
2022-12-06T00:27:40.798Z,10.23
2022-12-06T00:30:10.068Z,11.40
2022-12-06T00:32:39.321Z,8.97
2022-12-06T00:35:08.188Z,8.40
2022-12-06T00:37:36.078Z,7.20
2022-12-06T00:40:04.315Z,7.60
2022-12-06T00:42:32.195Z,7.63
2022-12-06T00:45:00.060Z,9.00
2022-12-06T00:47:27.919Z,8.43
2022-12-06T00:49:57.486Z,7.10
2022-12-06T00:52:25.690Z,8.23
2022-12-06T00:54:53.557Z,6.77
2022-12-06T00:57:21.437Z,5.97
2022-12-06T00:59:49.283Z,6.37
2022-12-06T01:02:17.186Z,5.83
2022-12-06T01:04:45.075Z,6.87
2022-12-06T01:07:14.338Z,6.63
2022-12-06T01:09:42.470Z,4.87
2022-12-06T01:12:10.245Z,6.17
2022-12-06T01:14:38.033Z,5.07
2022-12-06T01:17:05.904Z,4.23
2022-12-06T01:19:33.731Z,5.70
2022-12-06T01:22:01.555Z,4.73
2022-12-06T01:24:30.730Z,4.83
2022-12-06T01:26:58.557Z,4.10
2022-12-06T01:29:26.364Z,3.27
2022-12-06T01:31:54.162Z,4.37
2022-12-06T01:34:21.987Z,3.47
2022-12-06T01:36:50.839Z,3.27
2022-12-06T01:39:18.675Z,4.37
2022-12-06T01:41:47.909Z,4.03
2022-12-06T01:44:40.215Z,5.57
2022-12-06T01:47:14.306Z,3.10
2022-12-06T01:49:43.358Z,3.10
2022-12-06T01:52:14.160Z,2.33
2022-12-06T01:54:42.274Z,4.07
2022-12-06T01:57:14.403Z,3.37
2022-12-06T01:59:42.377Z,3.23
2022-12-06T02:02:10.558Z,2.30
2022-12-06T02:04:39.906Z,2.27
2022-12-06T02:07:08.954Z,3.70
2022-12-06T02:09:37.838Z,2.90
2022-12-06T02:12:07.411Z,3.30
2022-12-06T02:14:36.778Z,4.10
2022-12-06T02:17:21.523Z,3.63
2022-12-06T02:20:05.681Z,3.33
2022-12-06T02:22:51.503Z,3.13
2022-12-06T02:25:43.579Z,2.43
2022-12-06T02:28:27.395Z,2.80
2022-12-06T02:31:05.020Z,3.47
2022-12-06T02:33:39.664Z,3.10
2022-12-06T02:36:13.461Z,3.00
2022-12-06T02:38:47.754Z,2.63
2022-12-06T02:41:22.741Z,2.57
2022-12-06T02:43:55.702Z,3.53
2022-12-06T02:46:29.623Z,2.23
2022-12-06T02:48:59.850Z,2.57
2022-12-06T02:51:30.033Z,2.00
2022-12-06T02:54:01.760Z,3.63
2022-12-06T02:56:31.906Z,2.70
2022-12-06T02:58:59.899Z,2.27
2022-12-06T03:01:31.853Z,3.40
2022-12-06T03:04:11.790Z,5.23
2022-12-06T03:06:57.083Z,2.50
2022-12-06T03:09:37.660Z,3.67
2022-12-06T03:12:11.295Z,2.97
2022-12-06T03:14:47.337Z,3.73
2022-12-06T03:17:23.891Z,4.00
2022-12-06T03:19:56.889Z,1.83
2022-12-06T03:22:34.432Z,2.87
2022-12-06T03:25:06.466Z,3.07
2022-12-06T03:27:36.471Z,2.27
2022-12-06T03:30:08.334Z,3.93
2022-12-06T03:32:39.551Z,4.07
2022-12-06T03:35:11.451Z,7.33
2022-12-06T03:37:41.942Z,9.73
2022-12-06T03:40:17.594Z,4.73
2022-12-06T03:42:45.795Z,4.60
2022-12-06T03:45:14.838Z,4.93
2022-12-06T03:47:52.799Z,3.73
2022-12-06T03:50:24.378Z,5.47
2022-12-06T03:52:53.137Z,4.43
2022-12-06T03:55:21.063Z,4.40
2022-12-06T03:57:48.890Z,4.80
2022-12-06T04:00:17.808Z,3.23
2022-12-06T04:02:47.062Z,3.43
2022-12-06T04:05:15.333Z,3.23
2022-12-06T04:07:43.189Z,5.97
2022-12-06T04:10:11.653Z,4.73
2022-12-06T04:12:57.090Z,5.13
2022-12-06T04:15:24.927Z,4.73
2022-12-06T04:18:13.155Z,4.83
2022-12-06T04:21:00.600Z,4.87
2022-12-06T04:23:30.452Z,4.93
2022-12-06T04:25:58.318Z,7.17
2022-12-06T04:28:43.648Z,7.43
2022-12-06T04:31:29.503Z,7.03
2022-12-06T04:34:16.446Z,7.03
2022-12-06T04:37:01.934Z,5.00
2022-12-06T04:39:29.841Z,5.17
2022-12-06T04:42:15.388Z,7.27
2022-12-06T04:44:43.496Z,5.57
2022-12-06T04:47:11.827Z,4.87
2022-12-06T04:49:41.655Z,4.77
2022-12-06T04:52:10.823Z,6.97
2022-12-06T04:54:38.990Z,4.10
2022-12-06T04:57:10.922Z,5.23
2022-12-06T04:59:39.663Z,5.17
2022-12-06T05:02:09.955Z,4.83
2022-12-06T05:04:37.816Z,5.23
2022-12-06T05:07:07.003Z,4.80
2022-12-06T05:09:34.837Z,4.90
2022-12-06T05:12:02.682Z,4.57
2022-12-06T05:14:30.782Z,5.87
2022-12-06T05:16:58.871Z,5.27
2022-12-06T05:19:27.626Z,5.50
2022-12-06T05:21:55.474Z,5.17
2022-12-06T05:24:24.649Z,5.87
2022-12-06T05:26:52.448Z,4.67
2022-12-06T05:29:20.589Z,5.03
2022-12-06T05:31:48.533Z,5.47
2022-12-06T05:34:16.406Z,5.87
2022-12-06T05:36:45.845Z,6.23
2022-12-06T05:39:13.682Z,7.67
2022-12-06T05:41:42.847Z,7.03
2022-12-06T05:44:12.362Z,7.27
2022-12-06T05:46:40.188Z,6.17
2022-12-06T05:49:08.062Z,7.00
2022-12-06T05:51:35.909Z,6.17
2022-12-06T05:54:05.828Z,8.07
2022-12-06T05:56:34.204Z,7.60
2022-12-06T05:59:06.670Z,8.23
2022-12-06T06:01:34.539Z,7.30
2022-12-06T06:04:02.631Z,6.47
2022-12-06T06:06:30.522Z,8.33
2022-12-06T06:08:58.377Z,7.40
2022-12-06T06:11:26.210Z,7.60
2022-12-06T06:13:54.751Z,10.23
2022-12-06T06:16:23.957Z,7.50
2022-12-06T06:18:51.859Z,12.43
2022-12-06T06:21:19.702Z,9.50
2022-12-06T06:23:47.526Z,8.70
2022-12-06T06:26:15.402Z,12.17
2022-12-06T06:28:43.210Z,19.20
2022-12-06T06:31:11.067Z,11.70
2022-12-06T06:33:40.271Z,9.60
2022-12-06T06:36:09.046Z,7.73
2022-12-06T06:38:36.892Z,7.37
2022-12-06T06:41:05.372Z,5.47
2022-12-06T06:43:33.546Z,7.50
2022-12-06T06:46:03.035Z,15.07
2022-12-06T06:48:33.045Z,14.50
2022-12-06T06:51:05.271Z,12.27
2022-12-06T06:53:33.714Z,10.10
2022-12-06T06:56:02.693Z,10.77
2022-12-06T06:58:36.403Z,11.50
2022-12-06T07:01:06.527Z,11.73
2022-12-06T07:03:34.680Z,9.40
2022-12-06T07:06:10.237Z,8.57
2022-12-06T07:08:39.101Z,10.07
2022-12-06T07:11:07.498Z,11.37
2022-12-06T07:13:35.326Z,11.47
2022-12-06T07:16:04.492Z,19.23
2022-12-06T07:18:32.473Z,19.27
2022-12-06T07:21:03.752Z,9.93
2022-12-06T07:23:34.160Z,7.13
2022-12-06T07:26:03.768Z,9.77
2022-12-06T07:28:31.616Z,30.93
2022-12-06T07:30:59.505Z,29.27
2022-12-06T07:33:27.418Z,22.40
2022-12-06T07:36:12.422Z,17.27
2022-12-06T07:38:43.216Z,52.73
2022-12-06T07:41:31.159Z,25.47
2022-12-06T07:44:14.340Z,27.87
2022-12-06T07:46:42.210Z,26.23
2022-12-06T07:49:11.340Z,15.37
2022-12-06T07:51:40.039Z,11.60
2022-12-06T07:54:09.401Z,9.90
2022-12-06T07:56:37.372Z,8.93
2022-12-06T07:59:05.232Z,11.13
2022-12-06T08:01:33.285Z,8.10
2022-12-06T08:04:01.682Z,11.77
2022-12-06T08:06:30.859Z,12.57
2022-12-06T08:08:58.838Z,11.83
2022-12-06T08:11:28.815Z,12.13
2022-12-06T08:13:56.888Z,10.00
2022-12-06T08:16:24.847Z,13.13
2022-12-06T08:18:53.601Z,24.40
2022-12-06T08:21:21.536Z,25.33
2022-12-06T08:23:49.392Z,17.17
2022-12-06T08:26:18.694Z,16.07
2022-12-06T08:28:48.151Z,16.60
2022-12-06T08:31:18.088Z,28.27
2022-12-06T08:33:46.364Z,14.43
2022-12-06T08:36:16.262Z,11.83
2022-12-06T08:38:44.402Z,10.80
2022-12-06T08:41:27.279Z,11.20
2022-12-06T08:43:57.467Z,10.03
2022-12-06T08:46:25.743Z,10.77
2022-12-06T08:48:54.023Z,11.17
2022-12-06T08:51:22.141Z,10.90
2022-12-06T08:53:50.270Z,18.20
2022-12-06T08:56:18.090Z,12.70
2022-12-06T08:58:45.927Z,8.83
2022-12-06T09:01:17.244Z,83.23
2022-12-06T09:03:45.282Z,19.83
2022-12-06T09:06:13.114Z,18.23
2022-12-06T09:08:41.306Z,12.03
2022-12-06T09:11:10.064Z,14.53
2022-12-06T09:13:38.725Z,9.97
2022-12-06T09:16:08.036Z,9.13
2022-12-06T09:18:37.431Z,11.73
2022-12-06T09:21:06.980Z,13.33
2022-12-06T09:23:34.989Z,11.70
2022-12-06T09:26:03.194Z,12.90
2022-12-06T09:28:32.226Z,16.00
2022-12-06T09:31:00.173Z,9.17
2022-12-06T09:33:28.031Z,36.57
2022-12-06T09:35:58.127Z,32.33
2022-12-06T09:38:28.818Z,15.97
2022-12-06T09:41:05.700Z,11.57
2022-12-06T09:43:48.881Z,20.20
2022-12-06T09:46:39.125Z,18.83
2022-12-06T09:49:19.682Z,23.23
2022-12-06T09:52:03.834Z,17.03
2022-12-06T09:54:53.479Z,25.97
2022-12-06T09:57:33.810Z,15.97
2022-12-06T10:00:10.988Z,13.67
2022-12-06T10:03:05.545Z,14.30
2022-12-06T10:05:42.603Z,14.57
2022-12-06T10:08:24.236Z,35.23
2022-12-06T10:11:02.730Z,26.07
2022-12-06T10:13:47.410Z,38.53
2022-12-06T10:16:25.346Z,36.23
2022-12-06T10:19:08.203Z,24.77
2022-12-06T10:21:46.374Z,14.70
2022-12-06T10:24:28.457Z,29.17
2022-12-06T10:27:02.525Z,21.33
2022-12-06T10:29:39.051Z,21.83
2022-12-06T10:32:16.411Z,13.53
2022-12-06T10:34:53.557Z,37.93
2022-12-06T10:37:32.960Z,12.97
2022-12-06T10:40:08.139Z,30.57
2022-12-06T10:42:41.188Z,21.33
2022-12-06T10:45:38.393Z,14.97
2022-12-06T10:48:13.749Z,19.17
2022-12-06T10:50:42.902Z,24.37
2022-12-06T10:53:15.619Z,49.40
2022-12-06T10:55:50.143Z,40.17
2022-12-06T10:58:28.302Z,19.80
2022-12-06T11:00:59.810Z,12.10
2022-12-06T11:03:33.278Z,10.53
2022-12-06T11:06:08.134Z,9.37
2022-12-06T11:08:40.341Z,10.03
2022-12-06T11:11:15.898Z,10.47
2022-12-06T11:13:48.564Z,11.87
2022-12-06T11:16:22.865Z,10.73
2022-12-06T11:18:52.022Z,9.13
2022-12-06T11:21:27.604Z,8.30
2022-12-06T11:24:02.023Z,8.57
2022-12-06T11:26:39.012Z,7.67
2022-12-06T11:29:12.770Z,9.07
2022-12-06T11:31:44.678Z,9.20
2022-12-06T11:34:18.638Z,8.73
2022-12-06T11:36:47.478Z,7.97
2022-12-06T11:39:16.753Z,10.30
2022-12-06T11:41:50.102Z,9.47
2022-12-06T11:44:21.693Z,8.83
2022-12-06T11:46:54.491Z,7.60
2022-12-06T11:49:28.383Z,7.47
2022-12-06T11:51:58.732Z,9.33
2022-12-06T11:54:31.732Z,7.93
2022-12-06T11:57:12.008Z,7.50
2022-12-06T11:59:39.834Z,8.13
2022-12-06T12:02:27.839Z,8.97
2022-12-06T12:04:55.673Z,7.07
2022-12-06T12:07:25.977Z,9.10
2022-12-06T12:09:57.409Z,9.30
2022-12-06T12:12:49.425Z,7.83
2022-12-06T12:15:19.237Z,9.13
2022-12-06T12:17:49.896Z,8.97
2022-12-06T12:20:24.794Z,9.07
2022-12-06T12:22:58.185Z,8.70
2022-12-06T12:25:28.724Z,8.20
2022-12-06T12:27:58.623Z,7.43
2022-12-06T12:30:33.133Z,7.30
2022-12-06T12:33:15.666Z,6.80
2022-12-06T12:35:45.653Z,6.90
2022-12-06T12:38:22.647Z,5.13
2022-12-06T12:40:53.160Z,8.00
2022-12-06T12:43:25.406Z,6.10
2022-12-06T12:46:16.919Z,4.87
2022-12-06T12:48:47.197Z,7.30
2022-12-06T12:51:29.614Z,8.03
2022-12-06T12:54:01.096Z,6.60
2022-12-06T12:56:31.580Z,6.00
2022-12-06T12:59:03.579Z,8.10
2022-12-06T13:01:40.274Z,7.23
2022-12-06T13:04:21.694Z,7.70
2022-12-06T13:06:53.038Z,6.47
2022-12-06T13:09:26.019Z,6.80
2022-12-06T13:11:59.969Z,5.30
2022-12-06T13:14:30.481Z,5.70
2022-12-06T13:17:06.268Z,5.23
2022-12-06T13:19:37.941Z,4.63
2022-12-06T13:22:07.142Z,5.87
2022-12-06T13:24:37.474Z,6.10
2022-12-06T13:27:12.520Z,6.73
2022-12-06T13:29:45.243Z,6.03
2022-12-06T13:32:17.268Z,5.87
2022-12-06T13:34:50.289Z,6.60
2022-12-06T13:37:29.894Z,3.80
2022-12-06T13:39:58.479Z,4.97
2022-12-06T13:42:43.588Z,5.20
2022-12-06T13:45:41.999Z,5.13
2022-12-06T13:48:52.700Z,8.13
2022-12-06T13:51:43.803Z,6.07
2022-12-06T13:54:31.685Z,3.53
2022-12-06T13:57:00.895Z,3.93
2022-12-06T13:59:41.390Z,3.43
2022-12-06T14:02:52.261Z,5.00
2022-12-06T14:08:30.927Z,4.33
2022-12-06T14:11:24.486Z,5.07
2022-12-06T14:14:02.374Z,4.93
2022-12-06T14:16:35.181Z,4.10
2022-12-06T14:19:13.323Z,4.37
2022-12-06T14:21:45.263Z,5.00
2022-12-06T14:24:29.765Z,3.73
2022-12-06T14:27:05.105Z,4.60
2022-12-06T14:29:33.402Z,4.70
2022-12-06T14:32:01.290Z,5.63
2022-12-06T14:34:30.656Z,5.77
2022-12-06T14:37:00.706Z,4.53
2022-12-06T14:39:31.920Z,4.73
2022-12-06T14:42:19.489Z,5.30
2022-12-06T14:44:51.600Z,4.50
2022-12-06T14:47:21.534Z,4.97
2022-12-06T14:50:10.573Z,5.73
2022-12-06T14:52:56.722Z,4.17
2022-12-06T14:55:24.945Z,6.03
2022-12-06T14:57:57.327Z,4.70
2022-12-06T15:00:27.964Z,5.43
2022-12-06T15:03:07.199Z,5.90
2022-12-06T15:05:37.899Z,5.43
2022-12-06T15:08:33.099Z,6.27
2022-12-06T15:11:02.597Z,5.00
2022-12-06T15:13:29.945Z,4.10
2022-12-06T15:16:15.328Z,7.60
2022-12-06T15:18:45.842Z,5.77
2022-12-06T15:21:15.866Z,4.97
2022-12-06T15:23:50.874Z,6.13
2022-12-06T15:26:20.462Z,6.77
2022-12-06T15:28:48.900Z,5.20
2022-12-06T15:31:20.883Z,6.53
2022-12-06T15:33:49.686Z,10.23
2022-12-06T15:36:19.131Z,7.10
2022-12-06T15:38:47.495Z,6.90
2022-12-06T15:41:19.274Z,8.03
2022-12-06T15:43:47.749Z,8.17
2022-12-06T15:46:19.702Z,8.03
2022-12-06T15:48:48.406Z,7.80
2022-12-06T15:51:20.872Z,7.13
2022-12-06T15:53:50.925Z,7.93
2022-12-06T15:56:21.857Z,8.73
2022-12-06T15:58:50.389Z,6.47
2022-12-06T16:01:20.932Z,6.50
2022-12-06T16:03:48.831Z,9.07
2022-12-06T16:06:18.082Z,8.83
2022-12-06T16:08:46.804Z,8.73
2022-12-06T16:11:17.319Z,7.90
2022-12-06T16:13:46.760Z,7.93
2022-12-06T16:16:16.485Z,8.17
2022-12-06T16:18:44.447Z,6.43
2022-12-06T16:21:21.057Z,6.60
2022-12-06T16:24:13.175Z,10.20
2022-12-06T16:26:44.429Z,8.47
2022-12-06T16:29:16.818Z,10.97
2022-12-06T16:31:45.181Z,10.90
2022-12-06T16:34:13.592Z,11.30
2022-12-06T16:36:59.681Z,11.77
2022-12-06T16:39:27.962Z,13.57
2022-12-06T16:41:55.856Z,13.23
2022-12-06T16:44:25.529Z,12.30
2022-12-06T16:46:53.620Z,11.27
2022-12-06T16:52:11.423Z,13.10
2022-12-06T16:54:41.427Z,11.80
2022-12-06T16:57:10.283Z,11.97
2022-12-06T16:59:40.292Z,11.10
2022-12-06T17:02:27.478Z,13.93
2022-12-06T17:04:55.868Z,16.43
2022-12-06T17:07:24.006Z,17.17
2022-12-06T17:09:51.834Z,22.37
2022-12-06T17:12:19.912Z,18.43
2022-12-06T17:14:49.061Z,22.93
2022-12-06T17:17:18.267Z,19.40
2022-12-06T17:19:46.212Z,13.57
2022-12-06T17:22:16.653Z,15.73
2022-12-06T17:24:44.598Z,17.23
2022-12-06T17:27:14.750Z,13.80
2022-12-06T17:29:43.878Z,16.87
2022-12-06T17:32:13.924Z,13.87
2022-12-06T17:34:41.756Z,17.47
2022-12-06T17:37:10.082Z,18.10
2022-12-06T17:39:38.002Z,14.57
2022-12-06T17:42:23.961Z,14.93
2022-12-06T17:44:52.009Z,17.50
2022-12-06T17:47:21.395Z,17.10
2022-12-06T17:49:49.213Z,14.60
2022-12-06T17:52:17.786Z,18.80
2022-12-06T17:54:46.189Z,16.33
2022-12-06T17:57:17.952Z,16.50
2022-12-06T17:59:47.126Z,16.00
2022-12-06T18:02:16.889Z,17.07
2022-12-06T18:04:47.975Z,18.60
2022-12-06T18:07:17.540Z,15.10
2022-12-06T18:09:45.966Z,15.63
2022-12-06T18:12:15.503Z,13.30
2022-12-06T18:14:43.484Z,16.30
2022-12-06T18:17:11.682Z,18.23
2022-12-06T18:19:40.784Z,17.60
2022-12-06T18:22:10.016Z,17.17
2022-12-06T18:24:37.930Z,19.17
2022-12-06T18:27:06.231Z,18.20
2022-12-06T18:29:34.973Z,13.63
2022-12-06T18:32:04.336Z,15.17
2022-12-06T18:34:32.321Z,13.60
2022-12-06T18:37:00.284Z,16.37
2022-12-06T18:39:29.449Z,14.20
2022-12-06T18:41:58.049Z,14.77
2022-12-06T18:44:25.890Z,14.13
2022-12-06T18:46:53.972Z,15.50
2022-12-06T18:49:21.923Z,14.50
2022-12-06T18:51:49.774Z,10.23
2022-12-06T18:54:17.687Z,12.43
2022-12-06T18:56:46.830Z,12.30
2022-12-06T18:59:14.689Z,10.90
2022-12-06T19:01:42.963Z,9.60
2022-12-06T19:04:14.787Z,10.57
2022-12-06T19:06:44.349Z,10.83
2022-12-06T19:09:13.919Z,11.20
2022-12-06T19:11:43.883Z,8.20
2022-12-06T19:14:13.555Z,8.50
2022-12-06T19:16:43.532Z,11.07
2022-12-06T19:19:16.677Z,9.97
2022-12-06T19:21:46.023Z,12.53
2022-12-06T19:24:15.860Z,10.80
2022-12-06T19:26:43.952Z,10.77
2022-12-06T19:29:13.694Z,10.33
2022-12-06T19:31:41.566Z,9.47
2022-12-06T19:34:16.227Z,10.17
2022-12-06T19:36:44.384Z,10.00
2022-12-06T19:39:13.760Z,12.50
2022-12-06T19:41:56.256Z,11.53
2022-12-06T19:44:26.096Z,10.27
2022-12-06T19:46:54.018Z,11.97
2022-12-06T19:49:23.983Z,11.27
2022-12-06T19:51:52.795Z,10.00
2022-12-06T19:54:23.263Z,7.87
2022-12-06T19:56:53.249Z,11.67
2022-12-06T19:59:21.485Z,9.17
2022-12-06T20:01:51.520Z,24.33
2022-12-06T20:04:21.133Z,11.37
2022-12-06T20:06:49.129Z,11.70
2022-12-06T20:09:17.268Z,11.20
2022-12-06T20:12:05.218Z,10.77
2022-12-06T20:14:39.045Z,10.10
2022-12-06T20:17:09.928Z,8.97
2022-12-06T20:19:38.207Z,10.10
2022-12-06T20:22:06.129Z,9.07
2022-12-06T20:24:34.060Z,14.53
2022-12-06T20:27:01.965Z,12.77
2022-12-06T20:29:30.012Z,9.17
2022-12-06T20:32:00.048Z,10.70
2022-12-06T20:34:33.934Z,8.33
2022-12-06T20:37:04.084Z,10.20
2022-12-06T20:39:34.986Z,8.37
2022-12-06T20:42:03.946Z,8.93
2022-12-06T20:44:31.823Z,9.37
2022-12-06T20:47:00.119Z,13.00
2022-12-06T20:49:29.469Z,9.83
2022-12-06T20:51:58.014Z,8.67
2022-12-06T20:54:25.806Z,11.27
2022-12-06T20:56:53.731Z,11.57
2022-12-06T20:59:22.415Z,8.10
2022-12-06T21:01:50.496Z,9.50
2022-12-06T21:04:18.460Z,9.30
2022-12-06T21:06:47.662Z,8.83
2022-12-06T21:09:15.540Z,9.93
2022-12-06T21:11:43.469Z,13.20
2022-12-06T21:14:13.226Z,8.53
2022-12-06T21:16:42.844Z,8.03
2022-12-06T21:19:14.150Z,10.20
2022-12-06T21:21:45.831Z,10.07
2022-12-06T21:24:17.430Z,6.67
2022-12-06T21:26:45.597Z,7.87
2022-12-06T21:29:16.803Z,12.23
2022-12-06T21:31:45.206Z,10.83
2022-12-06T21:34:13.872Z,15.27
2022-12-06T21:36:42.168Z,12.67
2022-12-06T21:39:11.268Z,10.33
2022-12-06T21:41:40.766Z,17.23
2022-12-06T21:44:08.598Z,14.13
2022-12-06T21:46:36.465Z,13.00
2022-12-06T21:49:04.349Z,16.43
2022-12-06T21:51:32.834Z,10.10
2022-12-06T21:54:01.393Z,10.70
2022-12-06T21:56:30.746Z,11.03
2022-12-06T21:59:01.103Z,10.37
2022-12-06T22:01:30.553Z,8.07
2022-12-06T22:04:02.078Z,9.37
2022-12-06T22:06:31.327Z,7.37
2022-12-06T22:09:00.503Z,9.33
2022-12-06T22:11:29.584Z,9.57
2022-12-06T22:14:00.038Z,11.97
2022-12-06T22:16:28.652Z,9.57
2022-12-06T22:18:56.790Z,9.63
2022-12-06T22:21:27.230Z,8.83
2022-12-06T22:23:57.346Z,9.10
2022-12-06T22:26:28.130Z,8.87
2022-12-06T22:28:56.310Z,9.47
2022-12-06T22:31:27.884Z,8.90
2022-12-06T22:33:57.996Z,8.60
2022-12-06T22:36:26.093Z,9.93
2022-12-06T22:38:55.653Z,7.43
2022-12-06T22:41:24.410Z,7.50
2022-12-06T22:43:53.457Z,8.33
2022-12-06T22:46:21.924Z,9.10
2022-12-06T22:48:51.316Z,7.83
2022-12-06T22:51:21.017Z,8.03
2022-12-06T22:53:52.689Z,7.97
2022-12-06T22:56:20.809Z,7.97
2022-12-06T22:58:49.212Z,10.03
2022-12-06T23:01:19.749Z,7.33
2022-12-06T23:03:48.928Z,6.97
2022-12-06T23:06:20.698Z,8.83
2022-12-06T23:08:48.675Z,7.97
2022-12-06T23:11:18.787Z,7.50
2022-12-06T23:13:47.135Z,8.57
2022-12-06T23:16:16.446Z,8.57
2022-12-06T23:18:44.664Z,7.90
2022-12-06T23:21:15.981Z,7.50
2022-12-06T23:23:47.666Z,8.37
2022-12-06T23:26:17.405Z,7.03
2022-12-06T23:28:46.382Z,8.30
2022-12-06T23:31:16.929Z,7.63
2022-12-06T23:33:46.248Z,7.60
2022-12-06T23:36:15.871Z,8.43
2022-12-06T23:38:45.598Z,7.07
2022-12-06T23:41:15.476Z,8.43
2022-12-06T23:43:43.538Z,7.40
2022-12-06T23:46:12.845Z,7.07
2022-12-06T23:48:40.669Z,7.93
2022-12-06T23:51:11.404Z,8.57
2022-12-06T23:53:40.080Z,9.27
2022-12-06T23:56:12.148Z,6.17
2022-12-06T23:58:40.745Z,10.00
